Time;durP1;ratioP1;P1;durP2;ratioP2;P2;SDS_P1;SDS_P2;PMS_P1;PMS_P2;Temp;Humidity;BMP_temperature;BMP_pressure;BME280_temperature;BME280_humidity;BME280_pressure;Samples;Min_cycle;Max_cycle;Signal;HPM_P1;HPM_P2
2021/03/13 00:01:55;;;;;;;;;;;7.80;81.60;;;;;;5049039;28;19912;-62
2021/03/13 00:04:21;;;;;;;;;;;7.90;81.70;;;;;;5043211;28;19970;-62
2021/03/13 00:06:46;;;;;;;;;;;7.90;81.90;;;;;;5043953;28;19912;-63
2021/03/13 00:09:12;;;;;;;;;;;8.20;82.30;;;;;;5051395;28;19923;-62
2021/03/13 00:11:37;;;;;;;;;;;7.80;82.10;;;;;;5045958;28;20311;-63
2021/03/13 00:14:03;;;;;;;;;;;7.60;81.60;;;;;;5047928;28;19994;-63
2021/03/13 00:16:28;;;;;;;;;;;7.70;82.30;;;;;;5049772;28;19917;-62
2021/03/13 00:18:54;;;;;;;;;;;7.70;82.00;;;;;;5045244;28;20384;-62
2021/03/13 00:21:19;;;;;;;;;;;7.70;82.10;;;;;;5049928;28;19963;-63
2021/03/13 00:23:45;;;;;;;;;;;7.70;81.90;;;;;;5048626;28;20014;-62
2021/03/13 00:26:10;;;;;;;;;;;8.00;82.60;;;;;;5046400;28;19916;-62
2021/03/13 00:28:36;;;;;;;;;;;7.70;82.50;;;;;;5052245;28;19908;-62
2021/03/13 00:31:01;;;;;;;;;;;7.80;82.90;;;;;;5054171;28;19913;-63
2021/03/13 00:33:28;;;;;;;;;;;7.60;82.80;;;;;;5050368;28;19943;-62
2021/03/13 00:35:54;;;;;;;;;;;7.80;83.20;;;;;;5045050;28;20248;-63
2021/03/13 00:38:20;;;;;;;;;;;7.70;83.80;;;;;;5048442;28;19954;-62
2021/03/13 00:40:47;;;;;;;;;;;7.90;83.90;;;;;;5051174;28;19912;-62
2021/03/13 00:43:13;;;;;;;;;;;7.80;84.00;;;;;;5044696;28;19920;-62
2021/03/13 00:45:40;;;;;;;;;;;7.60;84.30;;;;;;5065120;28;19913;-63
2021/03/13 00:48:06;;;;;;;;;;;7.90;84.70;;;;;;5046865;28;19912;-63
2021/03/13 00:50:33;;;;;;;;;;;7.60;84.00;;;;;;5042074;28;20032;-62
2021/03/13 00:52:59;;;;;;;;;;;7.50;85.00;;;;;;5052190;28;19991;-63
2021/03/13 00:55:25;;;;;;;;;;;7.40;85.40;;;;;;5044227;28;19913;-62
2021/03/13 00:57:50;;;;;;;;;;;7.60;86.00;;;;;;5046482;28;19920;-62
2021/03/13 01:00:18;;;;;;;;;;;7.60;85.90;;;;;;5046257;28;19908;-62
2021/03/13 01:02:43;;;;;;;;;;;7.40;85.70;;;;;;5045502;28;20008;-63
2021/03/13 01:05:10;;;;;;;;;;;7.30;86.40;;;;;;5052798;28;20027;-63
2021/03/13 01:07:36;;;;;;;;;;;7.40;86.00;;;;;;5044185;28;19912;-62
2021/03/13 01:10:06;;;;;;;;;;;7.70;87.50;;;;;;5051230;28;19995;-62
2021/03/13 01:12:32;;;;;;;;;;;7.00;87.00;;;;;;5048880;28;19924;-63
2021/03/13 01:14:57;;;;;;;;;;;8.00;88.10;;;;;;5050937;28;20394;-62
2021/03/13 01:17:23;;;;;;;;;;;7.50;87.90;;;;;;5054293;28;19962;-62
2021/03/13 01:19:48;;;;;;;;;;;7.30;88.00;;;;;;5048594;28;19909;-62
2021/03/13 01:22:14;;;;;;;;;;;7.20;87.90;;;;;;5052217;28;20283;-63
2021/03/13 01:24:41;;;;;;;;;;;7.30;87.70;;;;;;5051159;28;19919;-63
2021/03/13 01:27:07;;;;;;;;;;;7.30;88.20;;;;;;5050675;28;19913;-62
2021/03/13 01:29:33;;;;;;;;;;;7.10;87.30;;;;;;5052783;28;20090;-62
2021/03/13 01:32:03;;;;;;;;;;;7.10;88.40;;;;;;5052411;28;20086;-62
2021/03/13 01:34:28;;;;;;;;;;;8.00;88.90;;;;;;5050228;28;19955;-62
2021/03/13 01:36:54;;;;;;;;;;;7.50;88.90;;;;;;5049289;28;19967;-62
2021/03/13 01:39:19;;;;;;;;;;;7.30;88.80;;;;;;5049285;28;19919;-63
2021/03/13 01:41:45;;;;;;;;;;;7.30;88.70;;;;;;5054599;28;19936;-63
2021/03/13 01:44:10;;;;;;;;;;;8.10;89.70;;;;;;5050816;28;19921;-62
2021/03/13 01:46:36;;;;;;;;;;;7.40;89.10;;;;;;5050583;28;19951;-63
2021/03/13 01:49:01;;;;;;;;;;;7.40;89.60;;;;;;5051307;28;19913;-63
2021/03/13 01:51:27;;;;;;;;;;;7.20;89.60;;;;;;5049873;28;19970;-62
2021/03/13 01:53:52;;;;;;;;;;;6.30;89.40;;;;;;5053021;28;19912;-63
2021/03/13 01:56:18;;;;;;;;;;;7.00;90.00;;;;;;5048973;28;19913;-63
2021/03/13 01:58:44;;;;;;;;;;;7.40;90.00;;;;;;5067001;28;19959;-63
2021/03/13 02:01:10;;;;;;;;;;;6.70;89.50;;;;;;5045736;28;19947;-62
2021/03/13 02:03:39;;;;;;;;;;;7.30;89.60;;;;;;5048726;28;19948;-62
2021/03/13 02:06:05;;;;;;;;;;;6.80;85.30;;;;;;5053042;28;19915;-63
2021/03/13 02:08:38;;;;;;;;;;;7.20;88.90;;;;;;5050118;28;19912;-63
2021/03/13 02:11:07;;;;;;;;;;;7.30;89.50;;;;;;5050089;28;20379;-63
2021/03/13 02:13:45;;;;;;;;;;;7.20;89.70;;;;;;5054853;28;19908;-63
2021/03/13 02:16:22;;;;;;;;;;;7.00;85.90;;;;;;5059019;28;19913;-63
2021/03/13 02:19:05;;;;;;;;;;;6.70;85.90;;;;;;5051033;28;20280;-63
2021/03/13 02:21:37;;;;;;;;;;;7.00;86.20;;;;;;5052818;28;19909;-63
2021/03/13 02:24:03;;;;;;;;;;;6.70;86.30;;;;;;5058106;28;19917;-62
2021/03/13 02:26:31;;;;;;;;;;;7.10;90.30;;;;;;5052223;28;19944;-63
2021/03/13 02:29:03;;;;;;;;;;;7.10;86.70;;;;;;5048285;28;19916;-63
2021/03/13 02:31:29;;;;;;;;;;;7.10;90.40;;;;;;5045484;28;19946;-63
2021/03/13 02:33:58;;;;;;;;;;;7.00;90.30;;;;;;5054174;28;20372;-62
2021/03/13 02:36:25;;;;;;;;;;;6.90;90.50;;;;;;5044425;28;20284;-63
2021/03/13 02:38:57;;;;;;;;;;;7.30;90.80;;;;;;5053972;28;19920;-62
2021/03/13 02:41:26;;;;;;;;;;;6.50;87.80;;;;;;5046874;28;20287;-62
2021/03/13 02:43:53;;;;;;;;;;;6.80;91.00;;;;;;5056519;28;20398;-62
2021/03/13 02:46:21;;;;;;;;;;;6.70;90.90;;;;;;5053124;28;20350;-62
2021/03/13 02:48:47;;;;;;;;;;;7.00;91.40;;;;;;5047904;28;20028;-63
2021/03/13 02:51:15;;;;;;;;;;;6.80;91.20;;;;;;5050046;28;20800;-63
2021/03/13 02:53:41;;;;;;;;;;;6.80;91.70;;;;;;5052350;28;19913;-63
2021/03/13 02:56:07;;;;;;;;;;;7.40;91.60;;;;;;5058518;28;19908;-62
2021/03/13 02:58:33;;;;;;;;;;;6.60;91.70;;;;;;5052532;28;19912;-63
2021/03/13 03:00:59;;;;;;;;;;;7.10;92.10;;;;;;5050686;28;20283;-62
2021/03/13 03:03:25;;;;;;;;;;;6.20;92.00;;;;;;5050590;28;19938;-62
2021/03/13 03:05:54;;;;;;;;;;;6.30;92.00;;;;;;5055947;28;19909;-63
2021/03/13 03:08:20;;;;;;;;;;;6.50;92.40;;;;;;5044671;28;20284;-63
2021/03/13 03:10:46;;;;;;;;;;;6.50;92.40;;;;;;5056818;28;19912;-63
2021/03/13 03:13:12;;;;;;;;;;;6.10;92.30;;;;;;5052622;28;20512;-62
2021/03/13 03:15:38;;;;;;;;;;;6.30;92.50;;;;;;5052973;28;19912;-63
2021/03/13 03:18:09;;;;;;;;;;;6.40;92.90;;;;;;5068281;28;19912;-62
2021/03/13 03:20:36;;;;;;;;;;;6.40;92.80;;;;;;5048088;28;19919;-62
2021/03/13 03:23:02;;;;;;;;;;;6.30;93.20;;;;;;5054661;28;19916;-63
2021/03/13 03:25:28;;;;;;;;;;;6.40;93.30;;;;;;5047847;28;20021;-62
2021/03/13 03:27:53;;;;;;;;;;;6.70;93.40;;;;;;5051536;28;20377;-62
2021/03/13 03:30:21;;;;;;;;;;;6.70;93.60;;;;;;5053561;28;19916;-63
2021/03/13 03:32:46;;;;;;;;;;;6.10;93.30;;;;;;5045169;28;20491;-63
2021/03/13 03:35:13;;;;;;;;;;;6.40;94.10;;;;;;5052813;28;20754;-62
2021/03/13 03:37:38;;;;;;;;;;;6.40;93.70;;;;;;5049310;28;20338;-63
2021/03/13 03:40:05;;;;;;;;;;;6.20;94.30;;;;;;5051454;28;19909;-63
2021/03/13 03:42:31;;;;;;;;;;;6.10;94.10;;;;;;5055936;28;20317;-63
2021/03/13 03:44:58;;;;;;;;;;;6.50;95.00;;;;;;5048783;28;19920;-63
2021/03/13 03:47:24;;;;;;;;;;;6.10;95.30;;;;;;5055798;28;19913;-63
2021/03/13 03:49:50;;;;;;;;;;;6.70;95.50;;;;;;5050234;28;19909;-63
2021/03/13 03:52:16;;;;;;;;;;;6.40;95.40;;;;;;5051415;28;20415;-62
2021/03/13 03:54:42;;;;;;;;;;;6.30;95.60;;;;;;5037542;28;20055;-62
2021/03/13 03:57:08;;;;;;;;;;;6.60;96.00;;;;;;5050736;28;20007;-63
2021/03/13 03:59:34;;;;;;;;;;;6.20;96.00;;;;;;5052445;28;19913;-62
2021/03/13 04:02:01;;;;;;;;;;;6.20;96.10;;;;;;5051738;28;19970;-63
2021/03/13 04:04:27;;;;;;;;;;;6.10;96.10;;;;;;5043771;28;20392;-62
2021/03/13 04:06:53;;;;;;;;;;;6.30;96.30;;;;;;5052610;28;19931;-62
2021/03/13 04:09:20;;;;;;;;;;;6.30;96.30;;;;;;5048421;28;20367;-62
2021/03/13 04:11:46;;;;;;;;;;;7.20;96.70;;;;;;5044928;28;20003;-62
2021/03/13 04:14:11;;;;;;;;;;;6.00;96.00;;;;;;5050319;28;20000;-63
2021/03/13 04:16:37;;;;;;;;;;;6.00;96.20;;;;;;5059075;28;20004;-62
2021/03/13 04:19:03;;;;;;;;;;;6.50;96.30;;;;;;5049449;28;19966;-63
2021/03/13 04:21:30;;;;;;;;;;;6.50;96.40;;;;;;5044959;28;19912;-62
2021/03/13 04:23:56;;;;;;;;;;;6.70;96.50;;;;;;5064204;28;20384;-62
2021/03/13 04:26:22;;;;;;;;;;;6.50;96.40;;;;;;5048347;28;19955;-62
2021/03/13 04:28:49;;;;;;;;;;;6.20;96.30;;;;;;5047965;28;19913;-62
2021/03/13 04:31:20;;;;;;;;;;;6.60;96.40;;;;;;5051354;28;19958;-62
2021/03/13 04:33:47;;;;;;;;;;;6.20;94.70;;;;;;5047297;28;19913;-62
2021/03/13 04:36:13;;;;;;;;;;;6.50;96.40;;;;;;5040612;28;19920;-62
2021/03/13 04:38:39;;;;;;;;;;;6.40;96.30;;;;;;5052147;28;19912;-63
2021/03/13 04:41:05;;;;;;;;;;;6.70;96.40;;;;;;5042805;28;19922;-63
2021/03/13 04:43:31;;;;;;;;;;;6.40;96.60;;;;;;5054376;28;19917;-63
2021/03/13 04:45:58;;;;;;;;;;;6.40;96.10;;;;;;5046456;28;20659;-62
2021/03/13 04:48:25;;;;;;;;;;;6.40;96.20;;;;;;5050971;28;20458;-62
2021/03/13 04:50:51;;;;;;;;;;;6.60;96.00;;;;;;5055073;28;19913;-62
2021/03/13 04:53:16;;;;;;;;;;;7.10;96.30;;;;;;5047851;28;19920;-62
2021/03/13 04:55:42;;;;;;;;;;;6.30;95.80;;;;;;5054189;28;19919;-63
2021/03/13 04:58:08;;;;;;;;;;;6.50;96.00;;;;;;5051203;28;19916;-63
2021/03/13 05:00:33;;;;;;;;;;;6.90;96.20;;;;;;5048684;28;19912;-62
2021/03/13 05:02:59;;;;;;;;;;;6.70;96.10;;;;;;5056347;28;19919;-62
2021/03/13 05:05:24;;;;;;;;;;;6.50;95.90;;;;;;5048322;28;20007;-63
2021/03/13 05:07:50;;;;;;;;;;;6.30;95.80;;;;;;5054101;28;19917;-62
2021/03/13 05:10:18;;;;;;;;;;;7.00;96.00;;;;;;5052879;28;19931;-62
2021/03/13 05:12:44;;;;;;;;;;;6.30;95.10;;;;;;5050763;28;19913;-62
2021/03/13 05:15:09;;;;;;;;;;;6.20;95.50;;;;;;5051021;28;19912;-63
2021/03/13 05:17:35;;;;;;;;;;;6.30;95.20;;;;;;5047721;28;19931;-62
2021/03/13 05:20:01;;;;;;;;;;;6.70;95.40;;;;;;5052491;28;19999;-63
2021/03/13 05:22:26;;;;;;;;;;;6.60;95.40;;;;;;5052254;28;19916;-63
2021/03/13 05:24:52;;;;;;;;;;;6.80;95.40;;;;;;5050119;28;19928;-63
2021/03/13 05:27:17;;;;;;;;;;;7.00;95.60;;;;;;5051143;28;19935;-62
2021/03/13 05:29:43;;;;;;;;;;;6.50;95.30;;;;;;5046502;28;19935;-62
2021/03/13 05:32:08;;;;;;;;;;;6.60;95.30;;;;;;5063842;28;19909;-63
2021/03/13 05:34:34;;;;;;;;;;;6.80;95.40;;;;;;5046718;28;20284;-63
2021/03/13 05:37:00;;;;;;;;;;;6.60;95.30;;;;;;5047230;28;20656;-62
2021/03/13 05:39:25;;;;;;;;;;;6.50;95.30;;;;;;5050104;28;20015;-62
2021/03/13 05:41:51;;;;;;;;;;;6.50;95.20;;;;;;5045935;28;19913;-62
2021/03/13 05:44:18;;;;;;;;;;;7.10;95.20;;;;;;5053719;28;20315;-62
2021/03/13 05:46:44;;;;;;;;;;;6.60;94.90;;;;;;5049733;28;19919;-63
2021/03/13 05:49:10;;;;;;;;;;;7.00;95.10;;;;;;5048812;28;19995;-62
2021/03/13 05:51:46;;;;;;;;;;;6.80;95.00;;;;;;5053458;28;19962;-62
2021/03/13 05:54:12;;;;;;;;;;;6.40;93.20;;;;;;5044691;28;19920;-62
2021/03/13 05:56:38;;;;;;;;;;;6.70;94.90;;;;;;5047581;28;19972;-62
2021/03/13 05:59:05;;;;;;;;;;;7.20;95.20;;;;;;5051595;28;19919;-62
2021/03/13 06:01:30;;;;;;;;;;;6.60;94.90;;;;;;5050775;28;19915;-62
2021/03/13 06:03:56;;;;;;;;;;;6.60;94.90;;;;;;5068063;28;19916;-62
2021/03/13 06:06:22;;;;;;;;;;;6.70;94.90;;;;;;5042091;28;19921;-62
2021/03/13 06:08:48;;;;;;;;;;;6.80;95.00;;;;;;5045557;28;20046;-62
2021/03/13 06:11:15;;;;;;;;;;;6.70;95.00;;;;;;5051363;28;19923;-62
2021/03/13 06:13:41;;;;;;;;;;;6.70;95.00;;;;;;5049263;28;19943;-62
2021/03/13 06:16:07;;;;;;;;;;;6.40;94.80;;;;;;5067498;28;20325;-63
2021/03/13 06:18:48;;;;;;;;;;;6.60;94.90;;;;;;5043386;28;19918;-64
2021/03/13 06:21:24;;;;;;;;;;;6.60;93.30;;;;;;5047086;28;20363;-62
2021/03/13 06:24:00;;;;;;;;;;;6.80;93.40;;;;;;5053690;28;19913;-63
2021/03/13 06:26:26;;;;;;;;;;;6.90;94.70;;;;;;5042975;28;19909;-63
2021/03/13 06:28:53;;;;;;;;;;;7.00;95.00;;;;;;5051581;28;19947;-63
2021/03/13 06:31:22;;;;;;;;;;;6.80;95.00;;;;;;5049130;28;20273;-64
2021/03/13 06:33:48;;;;;;;;;;;6.90;93.30;;;;;;5058582;28;19912;-63
2021/03/13 06:36:19;;;;;;;;;;;7.10;94.70;;;;;;5052321;28;19920;-63
2021/03/13 06:38:44;;;;;;;;;;;7.30;94.80;;;;;;5050560;28;20309;-62
2021/03/13 06:41:11;;;;;;;;;;;7.00;94.40;;;;;;5051486;28;19913;-67
2021/03/13 06:43:38;;;;;;;;;;;7.20;94.30;;;;;;5051421;28;19923;-63
2021/03/13 06:46:06;;;;;;;;;;;7.20;94.20;;;;;;5055691;28;19920;-63
2021/03/13 06:48:32;;;;;;;;;;;7.20;94.00;;;;;;5048511;28;19916;-63
2021/03/13 06:51:18;;;;;;;;;;;7.40;93.90;;;;;;5047538;28;19912;-63
2021/03/13 06:53:43;;;;;;;;;;;7.50;92.20;;;;;;5046449;28;20268;-63
2021/03/13 06:56:10;;;;;;;;;;;7.70;93.60;;;;;;5049436;28;20335;-62
2021/03/13 06:58:36;;;;;;;;;;;7.70;93.40;;;;;;5043702;28;19916;-63
2021/03/13 07:01:05;;;;;;;;;;;7.60;93.30;;;;;;5047891;28;19908;-63
2021/03/13 07:03:31;;;;;;;;;;;7.30;91.80;;;;;;5047118;28;19923;-62
2021/03/13 07:05:57;;;;;;;;;;;7.50;93.30;;;;;;5048101;28;19912;-62
2021/03/13 07:08:31;;;;;;;;;;;7.60;93.20;;;;;;5051458;28;19955;-63
2021/03/13 07:11:03;;;;;;;;;;;7.60;91.40;;;;;;5062152;28;20505;-62
2021/03/13 07:13:36;;;;;;;;;;;7.80;91.00;;;;;;5044681;28;19909;-64
2021/03/13 07:16:20;;;;;;;;;;;7.40;91.50;;;;;;5050158;28;19973;-63
2021/03/13 07:18:46;;;;;;;;;;;7.70;91.70;;;;;;5057945;28;20291;-65
2021/03/13 07:21:12;;;;;;;;;;;7.80;93.20;;;;;;5064644;28;19928;-63
2021/03/13 07:23:38;;;;;;;;;;;7.80;93.20;;;;;;5047310;28;19913;-64
2021/03/13 07:26:04;;;;;;;;;;;8.10;93.10;;;;;;5043349;28;19919;-64
2021/03/13 07:28:30;;;;;;;;;;;7.90;93.00;;;;;;5052226;28;20284;-64
2021/03/13 07:30:56;;;;;;;;;;;7.80;92.70;;;;;;5047397;28;19915;-63
2021/03/13 07:33:23;;;;;;;;;;;7.90;92.60;;;;;;5047542;28;19913;-64
2021/03/13 07:35:50;;;;;;;;;;;7.90;92.60;;;;;;5057975;28;19998;-62
2021/03/13 07:38:16;;;;;;;;;;;7.90;92.30;;;;;;5047599;28;19916;-64
2021/03/13 07:40:48;;;;;;;;;;;7.90;92.40;;;;;;5051971;28;19916;-66
2021/03/13 07:43:14;;;;;;;;;;;7.60;90.70;;;;;;5044693;28;19917;-64
2021/03/13 07:45:40;;;;;;;;;;;8.00;92.20;;;;;;5061758;28;20066;-63
2021/03/13 07:48:08;;;;;;;;;;;8.00;95.00;;;;;;5050418;28;20293;-64
2021/03/13 07:50:33;;;;;;;;;;;8.00;94.80;;;;;;5047382;28;20562;-64
2021/03/13 07:52:59;;;;;;;;;;;8.60;94.40;;;;;;5048238;28;19935;-64
2021/03/13 07:55:25;;;;;;;;;;;8.50;94.10;;;;;;5047215;28;19954;-65
2021/03/13 07:57:51;;;;;;;;;;;9.00;93.10;;;;;;5040447;28;19912;-64
2021/03/13 08:00:17;;;;;;;;;;;8.30;92.90;;;;;;5050562;28;20609;-63
2021/03/13 08:02:43;;;;;;;;;;;8.10;91.70;;;;;;5042835;28;19928;-63
2021/03/13 08:05:16;;;;;;;;;;;8.00;92.10;;;;;;5050154;28;19917;-63
2021/03/13 08:07:57;;;;;;;;;;;8.00;90.40;;;;;;5058852;28;19912;-63
2021/03/13 08:10:41;;;;;;;;;;;8.20;90.50;;;;;;5042101;28;19917;-64
2021/03/13 08:13:07;;;;;;;;;;;8.20;90.20;;;;;;5052794;28;19913;-64
2021/03/13 08:15:33;;;;;;;;;;;8.30;92.00;;;;;;5048003;28;20368;-63
2021/03/13 08:17:59;;;;;;;;;;;8.60;91.90;;;;;;5062847;28;19988;-62
2021/03/13 08:20:30;;;;;;;;;;;8.40;91.70;;;;;;5052578;28;19962;-63
2021/03/13 08:23:11;;;;;;;;;;;8.20;89.70;;;;;;5044386;28;20264;-63
2021/03/13 08:25:59;;;;;;;;;;;8.20;89.40;;;;;;5057154;28;20330;-62
2021/03/13 08:28:43;;;;;;;;;;;7.10;88.00;;;;;;5052168;28;19916;-60
2021/03/13 08:31:23;;;;;;;;;;;8.40;88.50;;;;;;5048639;28;20267;-61
2021/03/13 08:33:49;;;;;;;;;;;8.50;88.30;;;;;;5057237;28;19917;-64
2021/03/13 08:36:15;;;;;;;;;;;8.80;90.50;;;;;;5052403;28;19962;-62
2021/03/13 08:38:57;;;;;;;;;;;8.70;90.20;;;;;;5054593;28;19913;-62
2021/03/13 08:44:19;;;;;;;;;;;9.30;87.20;;;;;;5051304;28;19916;-64
2021/03/13 08:46:45;;;;;;;;;;;9.50;85.80;;;;;;5052778;28;19923;-63
2021/03/13 08:49:11;;;;;;;;;;;9.90;89.40;;;;;;5053342;28;19982;-63
2021/03/13 08:51:37;;;;;;;;;;;9.90;88.60;;;;;;5048656;28;19938;-63
2021/03/13 08:54:05;;;;;;;;;;;10.40;88.10;;;;;;5060725;28;19921;-63
2021/03/13 08:56:34;;;;;;;;;;;10.00;85.30;;;;;;5058761;28;19916;-62
2021/03/13 08:59:07;;;;;;;;;;;10.00;83.40;;;;;;5040973;28;20291;-62
2021/03/13 09:01:33;;;;;;;;;;;9.50;85.20;;;;;;5047127;28;19923;-63
2021/03/13 09:04:02;;;;;;;;;;;10.00;83.20;;;;;;5048265;28;19930;-64
2021/03/13 09:06:28;;;;;;;;;;;9.70;85.40;;;;;;5042310;28;19966;-62
2021/03/13 09:09:13;;;;;;;;;;;9.80;87.10;;;;;;5045032;28;19939;-62
2021/03/13 09:11:41;;;;;;;;;;;9.70;83.20;;;;;;5044256;28;19922;-63
2021/03/13 09:14:07;;;;;;;;;;;10.10;90.30;;;;;;5044215;28;19909;-62
2021/03/13 09:16:33;;;;;;;;;;;10.40;94.50;;;;;;5054823;28;19916;-62
2021/03/13 09:18:59;;;;;;;;;;;9.60;87.80;;;;;;5052291;28;19916;-62
2021/03/13 09:21:43;;;;;;;;;;;10.00;85.40;;;;;;5055264;28;19913;-62
2021/03/13 09:24:09;;;;;;;;;;;9.70;81.20;;;;;;5048538;28;20024;-63
2021/03/13 09:26:35;;;;;;;;;;;9.50;84.90;;;;;;5045249;28;21118;-63
2021/03/13 09:29:01;;;;;;;;;;;9.40;85.20;;;;;;5047604;28;19912;-64
2021/03/13 09:31:27;;;;;;;;;;;9.80;85.70;;;;;;5046682;28;19912;-64
2021/03/13 09:33:52;;;;;;;;;;;9.50;86.30;;;;;;5044633;28;19924;-65
2021/03/13 09:36:27;;;;;;;;;;;10.20;85.20;;;;;;5041927;28;19909;-64
2021/03/13 09:38:53;;;;;;;;;;;9.80;81.10;;;;;;5046265;28;19912;-64
2021/03/13 09:41:18;;;;;;;;;;;10.00;85.00;;;;;;5061011;28;19931;-63
2021/03/13 09:43:47;;;;;;;;;;;10.30;85.00;;;;;;5044272;28;20404;-64
2021/03/13 09:46:19;;;;;;;;;;;9.90;80.60;;;;;;5047486;28;20335;-65
2021/03/13 09:48:47;;;;;;;;;;;9.80;80.70;;;;;;5045011;28;19947;-64
2021/03/13 09:51:13;;;;;;;;;;;9.70;84.10;;;;;;5046195;28;19913;-65
2021/03/13 09:53:39;;;;;;;;;;;10.00;84.70;;;;;;5045270;28;19920;-64
2021/03/13 09:56:05;;;;;;;;;;;10.30;86.50;;;;;;5045716;28;19982;-64
2021/03/13 09:58:30;;;;;;;;;;;10.10;83.80;;;;;;5048754;28;19912;-64
2021/03/13 10:00:56;;;;;;;;;;;10.20;84.00;;;;;;5051369;28;19912;-64
2021/03/13 10:03:21;;;;;;;;;;;10.70;85.60;;;;;;5043011;28;20035;-64
2021/03/13 10:05:51;;;;;;;;;;;10.60;84.60;;;;;;5047962;28;19916;-65
2021/03/13 10:08:17;;;;;;;;;;;10.20;81.60;;;;;;5044326;28;20015;-64
2021/03/13 10:10:44;;;;;;;;;;;10.00;89.00;;;;;;5044496;28;19923;-65
2021/03/13 10:13:10;;;;;;;;;;;;;;;;;;5041923;28;19920;-64
2021/03/13 10:15:36;;;;;;;;;;;10.50;89.00;;;;;;5051656;28;20371;-64
2021/03/13 10:18:14;;;;;;;;;;;10.60;84.20;;;;;;5056831;28;19913;-64
2021/03/13 10:20:43;;;;;;;;;;;10.50;82.10;;;;;;5049855;28;19927;-65
2021/03/13 10:23:10;;;;;;;;;;;10.80;81.50;;;;;;5044980;28;20368;-64
2021/03/13 10:25:36;;;;;;;;;;;;;;;;;;5044178;28;20280;-63
2021/03/13 10:28:02;;;;;;;;;;;;;;;;;;5043234;28;19962;-63
2021/03/13 10:30:27;;;;;;;;;;;10.70;81.10;;;;;;5050188;28;19921;-63
2021/03/13 10:32:53;;;;;;;;;;;10.80;81.60;;;;;;5044335;28;20779;-64
2021/03/13 10:35:20;;;;;;;;;;;;;;;;;;5049502;28;20427;-63
2021/03/13 10:37:48;;;;;;;;;;;11.00;78.80;;;;;;5037485;28;19912;-63
2021/03/13 10:40:32;;;;;;;;;;;11.00;79.10;;;;;;5055096;28;20568;-63
2021/03/13 10:43:10;;;;;;;;;;;11.10;79.90;;;;;;5040648;28;19921;-63
2021/03/13 10:45:36;;;;;;;;;;;;;;;;;;5043079;28;19947;-63
2021/03/13 10:48:06;;;;;;;;;;;11.40;79.20;;;;;;5043286;28;19952;-63
2021/03/13 10:50:32;;;;;;;;;;;;;;;;;;5040052;28;20422;-62
2021/03/13 10:52:57;;;;;;;;;;;11.50;79.00;;;;;;5043854;28;19909;-62
2021/03/13 10:55:23;;;;;;;;;;;;;;;;;;5046294;28;19935;-62
2021/03/13 10:58:01;;;;;;;;;;;11.20;78.30;;;;;;5042732;28;19920;-63
2021/03/13 11:00:27;;;;;;;;;;;11.20;78.60;;;;;;5049248;28;19920;-63
2021/03/13 11:02:52;;;;;;;;;;;11.30;80.00;;;;;;5043224;28;19917;-62
2021/03/13 11:05:18;;;;;;;;;;;11.30;86.80;;;;;;5044826;28;19912;-62
2021/03/13 11:07:43;;;;;;;;;;;11.00;78.40;;;;;;5045804;28;19909;-65
2021/03/13 11:10:09;;;;;;;;;;;11.20;78.50;;;;;;5042956;28;19924;-64
2021/03/13 11:12:35;;;;;;;;;;;11.10;79.00;;;;;;5044881;28;19912;-63
2021/03/13 11:15:00;;;;;;;;;;;11.20;78.20;;;;;;5048491;28;19924;-63
2021/03/13 11:17:26;;;;;;;;;;;11.50;79.60;;;;;;5042519;28;20255;-63
2021/03/13 11:19:51;;;;;;;;;;;11.70;78.20;;;;;;5044883;28;19908;-63
2021/03/13 11:22:17;;;;;;;;;;;11.60;78.30;;;;;;5046534;28;19920;-63
2021/03/13 11:24:42;;;;;;;;;;;11.50;79.50;;;;;;5037318;28;19924;-64
2021/03/13 11:27:10;;;;;;;;;;;11.80;78.10;;;;;;5043683;28;19917;-63
2021/03/13 11:29:36;;;;;;;;;;;;;;;;;;5041037;28;19913;-64
2021/03/13 11:32:01;;;;;;;;;;;11.70;76.70;;;;;;5041244;28;20527;-64
2021/03/13 11:34:29;;;;;;;;;;;11.70;80.80;;;;;;5041481;28;19916;-63
2021/03/13 11:36:55;;;;;;;;;;;;;;;;;;5040525;28;19945;-66
2021/03/13 11:39:22;;;;;;;;;;;11.70;78.00;;;;;;5041412;28;19999;-64
2021/03/13 11:41:48;;;;;;;;;;;12.00;78.30;;;;;;5049385;28;19913;-63
2021/03/13 11:44:13;;;;;;;;;;;11.80;74.40;;;;;;5042978;28;19913;-64
2021/03/13 11:46:39;;;;;;;;;;;12.00;77.70;;;;;;5048003;28;20042;-64
2021/03/13 11:49:05;;;;;;;;;;;11.90;74.80;;;;;;5043984;28;19939;-64
2021/03/13 11:51:30;;;;;;;;;;;;;;;;;;5040046;28;19940;-65
2021/03/13 11:53:56;;;;;;;;;;;11.80;74.80;;;;;;5041758;28;20717;-65
2021/03/13 11:56:22;;;;;;;;;;;;;;;;;;5045046;28;19917;-63
2021/03/13 11:58:50;;;;;;;;;;;11.80;80.60;;;;;;5042960;28;19999;-66
2021/03/13 12:01:19;;;;;;;;;;;11.70;74.40;;;;;;5043804;28;19989;-65
2021/03/13 12:03:45;;;;;;;;;;;;;;;;;;5041875;28;19916;-65
2021/03/13 12:06:10;;;;;;;;;;;11.80;79.70;;;;;;5045258;28;19919;-64
2021/03/13 12:08:36;;;;;;;;;;;;;;;;;;5045053;28;19915;-65
2021/03/13 12:11:02;;;;;;;;;;;;;;;;;;5048513;28;20290;-65
2021/03/13 12:13:28;;;;;;;;;;;;;;;;;;5057548;28;19970;-65
2021/03/13 12:15:54;;;;;;;;;;;;;;;;;;5045864;28;20344;-64
2021/03/13 12:18:19;;;;;;;;;;;11.50;79.90;;;;;;5058652;28;19935;-65
2021/03/13 12:20:45;;;;;;;;;;;;;;;;;;5041124;28;19956;-65
2021/03/13 12:23:11;;;;;;;;;;;11.50;74.00;;;;;;5044510;28;19916;-65
2021/03/13 12:25:37;;;;;;;;;;;;;;;;;;5042107;28;20001;-65
2021/03/13 12:28:02;;;;;;;;;;;11.40;72.90;;;;;;5046662;28;20487;-65
2021/03/13 12:30:28;;;;;;;;;;;11.50;75.50;;;;;;5042376;28;19921;-65
2021/03/13 12:32:54;;;;;;;;;;;11.60;73.40;;;;;;5044781;28;19913;-64
2021/03/13 12:35:20;;;;;;;;;;;;;;;;;;5041399;28;19919;-65
2021/03/13 12:37:46;;;;;;;;;;;11.50;75.50;;;;;;5044769;28;20839;-66
2021/03/13 12:40:14;;;;;;;;;;;11.40;72.40;;;;;;5043362;28;19954;-65
2021/03/13 12:42:39;;;;;;;;;;;11.70;73.50;;;;;;5046490;28;19991;-65
2021/03/13 12:45:06;;;;;;;;;;;11.60;73.80;;;;;;5041490;28;20498;-65
2021/03/13 12:47:31;;;;;;;;;;;11.60;74.10;;;;;;5045395;28;19962;-64
2021/03/13 12:49:57;;;;;;;;;;;11.60;73.10;;;;;;5054783;28;19913;-63
2021/03/13 12:52:23;;;;;;;;;;;11.60;75.50;;;;;;5050515;28;20295;-63
2021/03/13 12:54:51;;;;;;;;;;;;;;;;;;5043296;28;20308;-66
2021/03/13 12:57:16;;;;;;;;;;;11.70;73.60;;;;;;5049286;28;19912;-65
2021/03/13 12:59:44;;;;;;;;;;;11.70;72.50;;;;;;5044880;28;19925;-65
2021/03/13 13:02:09;;;;;;;;;;;11.90;73.00;;;;;;5045538;28;20060;-65
2021/03/13 13:04:35;;;;;;;;;;;11.70;74.30;;;;;;5041418;28;19958;-65
2021/03/13 13:07:03;;;;;;;;;;;12.10;71.30;;;;;;5044266;28;19913;-65
2021/03/13 13:09:28;;;;;;;;;;;11.80;84.10;;;;;;5045206;28;20302;-66
2021/03/13 13:11:54;;;;;;;;;;;;;;;;;;5046815;28;19919;-64
2021/03/13 13:14:20;;;;;;;;;;;12.00;71.90;;;;;;5048546;28;20457;-65
2021/03/13 13:16:45;;;;;;;;;;;;;;;;;;5046794;28;19913;-65
2021/03/13 13:19:11;;;;;;;;;;;12.10;71.20;;;;;;5049139;28;20002;-65
2021/03/13 13:21:39;;;;;;;;;;;11.60;71.70;;;;;;5046795;28;19913;-66
2021/03/13 13:24:05;;;;;;;;;;;;;;;;;;5059023;28;19912;-66
2021/03/13 13:26:31;;;;;;;;;;;11.80;71.80;;;;;;5045824;28;19962;-65
2021/03/13 13:28:56;;;;;;;;;;;11.90;71.40;;;;;;5049508;28;19912;-65
2021/03/13 13:31:22;;;;;;;;;;;11.80;73.20;;;;;;5045952;28;20541;-62
2021/03/13 13:33:47;;;;;;;;;;;11.70;71.00;;;;;;5050846;28;19913;-63
2021/03/13 13:36:13;;;;;;;;;;;11.60;71.10;;;;;;5042012;28;19916;-65
2021/03/13 13:38:38;;;;;;;;;;;11.60;71.00;;;;;;5045700;28;20429;-64
2021/03/13 13:41:04;;;;;;;;;;;11.80;72.80;;;;;;5044822;28;20503;-63
2021/03/13 13:43:33;;;;;;;;;;;11.70;86.20;;;;;;5046558;28;19921;-63
2021/03/13 13:45:58;;;;;;;;;;;11.60;72.90;;;;;;5061588;28;19965;-63
2021/03/13 13:48:24;;;;;;;;;;;11.60;73.70;;;;;;5046146;28;19917;-63
2021/03/13 13:50:49;;;;;;;;;;;11.70;73.70;;;;;;5047694;28;19912;-64
2021/03/13 13:53:15;;;;;;;;;;;;;;;;;;5050984;28;19955;-63
2021/03/13 13:55:43;;;;;;;;;;;11.60;74.50;;;;;;5047534;28;20313;-63
2021/03/13 13:58:09;;;;;;;;;;;;;;;;;;5054829;28;19917;-63
2021/03/13 14:00:34;;;;;;;;;;;11.20;76.10;;;;;;5049933;28;19916;-63
2021/03/13 14:03:00;;;;;;;;;;;11.40;75.20;;;;;;5049149;28;19923;-63
2021/03/13 14:05:26;;;;;;;;;;;11.40;75.30;;;;;;5050098;28;20551;-63
2021/03/13 14:07:51;;;;;;;;;;;11.20;77.60;;;;;;5063108;28;19958;-62
2021/03/13 14:10:17;;;;;;;;;;;11.40;75.80;;;;;;5052508;28;19908;-63
2021/03/13 14:12:45;;;;;;;;;;;11.40;75.30;;;;;;5043922;28;19917;-63
2021/03/13 14:15:11;;;;;;;;;;;;;;;;;;5049494;28;19934;-63
2021/03/13 14:17:37;;;;;;;;;;;11.20;75.00;;;;;;5050693;28;20023;-63
2021/03/13 14:20:03;;;;;;;;;;;11.30;77.20;;;;;;5046992;28;19912;-64
2021/03/13 14:22:29;;;;;;;;;;;11.20;75.30;;;;;;5046823;28;19908;-63
2021/03/13 14:24:54;;;;;;;;;;;;;;;;;;5051455;28;19969;-64
2021/03/13 14:27:20;;;;;;;;;;;11.40;75.40;;;;;;5048050;28;20023;-63
2021/03/13 14:29:46;;;;;;;;;;;;;;;;;;5048664;28;19919;-63
2021/03/13 14:32:12;;;;;;;;;;;11.50;75.10;;;;;;5031377;28;20462;-63
2021/03/13 14:34:37;;;;;;;;;;;11.30;75.50;;;;;;5043231;28;19918;-62
2021/03/13 14:37:03;;;;;;;;;;;11.60;75.00;;;;;;5041518;28;19922;-64
2021/03/13 14:39:28;;;;;;;;;;;11.50;74.70;;;;;;5041115;28;19988;-64